createdAt,value
2018-09-08T00:03:07.169Z,98655.20
2018-09-08T00:23:51.938Z,98660.82
2018-09-08T00:44:34.922Z,98677.82
2018-09-08T01:05:14.184Z,98688.45
2018-09-08T01:25:54.370Z,98697.16
2018-09-08T01:46:32.713Z,98705.33
2018-09-08T02:07:11.986Z,98697.39
2018-09-08T02:27:51.250Z,98693.49
2018-09-08T02:48:30.524Z,98705.94
2018-09-08T03:09:04.561Z,98705.00
2018-09-08T03:29:41.983Z,98725.69
2018-09-08T03:50:17.252Z,98720.99
2018-09-08T04:11:02.813Z,98737.56
2018-09-08T04:31:46.123Z,98746.19
2018-09-08T04:52:26.110Z,98768.75
2018-09-08T05:13:10.300Z,98786.03
2018-09-08T05:33:54.095Z,98783.81
2018-09-08T05:54:32.479Z,98793.62
2018-09-08T06:15:12.678Z,98800.90
2018-09-08T06:35:51.656Z,98807.64
2018-09-08T06:56:34.916Z,98807.70
2018-09-08T07:17:17.252Z,98796.70
2018-09-08T07:38:02.942Z,98810.09
2018-09-08T07:58:43.775Z,98798.15
2018-09-08T08:19:25.194Z,98783.38
2018-09-08T08:40:05.377Z,98784.84
2018-09-08T09:00:47.716Z,98757.31
2018-09-08T09:21:42.371Z,98768.53
2018-09-08T09:42:27.444Z,98753.03
2018-09-08T10:03:10.712Z,98733.87
2018-09-08T10:24:04.341Z,98729.45
2018-09-08T10:44:31.646Z,98711.63
2018-09-08T11:05:14.649Z,98701.09
2018-09-08T11:25:56.987Z,98700.16
2018-09-08T11:46:40.503Z,98694.38
2018-09-08T12:07:20.432Z,98679.92
2018-09-08T12:27:58.784Z,98673.30
2018-09-08T12:48:46.037Z,98654.34
2018-09-08T13:09:27.451Z,98645.06
2018-09-08T13:30:06.710Z,98638.22
2018-09-08T13:50:43.828Z,98630.54
2018-09-08T14:11:25.246Z,98627.50
2018-09-08T14:32:02.370Z,98628.42
2018-09-08T14:52:44.039Z,98617.82
2018-09-08T15:13:21.813Z,98600.39
2018-09-08T15:34:01.386Z,98601.34
2018-09-08T15:54:41.574Z,98611.50
2018-09-08T16:15:23.130Z,98611.14
2018-09-08T16:35:59.186Z,98604.68
2018-09-08T16:56:42.442Z,98601.24
2018-09-08T17:17:21.706Z,98606.80
2018-09-08T17:38:03.129Z,98601.33
2018-09-08T17:58:42.092Z,98612.27
2018-09-08T18:19:23.502Z,98624.48
2018-09-08T18:40:15.987Z,98636.83
2018-09-08T19:01:02.310Z,98643.91
2018-09-08T19:21:48.894Z,98646.16
2018-09-08T19:42:40.328Z,98652.69
2018-09-08T20:03:43.808Z,98653.83
2018-09-08T20:24:37.276Z,98655.76
2018-09-08T20:45:28.621Z,98664.09
2018-09-08T21:06:22.023Z,98666.56
2018-09-08T21:48:34.091Z,98687.67
2018-09-08T22:30:54.043Z,98695.73
2018-09-08T22:51:34.842Z,98706.64
2018-09-08T23:12:20.605Z,98692.89
2018-09-08T23:33:00.760Z,98715.56
2018-09-08T23:53:40.936Z,98726.46
